createdAt,value
2018-11-06T00:00:24.298Z,15.33
2018-11-06T00:05:14.653Z,15.22
2018-11-06T00:09:57.608Z,15.25
2018-11-06T00:14:40.569Z,15.23
2018-11-06T00:19:24.662Z,15.18
2018-11-06T00:24:07.818Z,15.23
2018-11-06T00:28:54.495Z,15.25
2018-11-06T00:33:37.339Z,15.22
2018-11-06T00:38:21.289Z,15.15
2018-11-06T00:43:04.146Z,15.12
2018-11-06T00:47:46.994Z,15.11
2018-11-06T00:52:30.980Z,15.02
2018-11-06T00:57:13.812Z,15.08
2018-11-06T01:01:56.796Z,15.18
2018-11-06T01:06:39.701Z,15.07
2018-11-06T01:11:22.763Z,15.20
2018-11-06T01:16:06.011Z,15.13
2018-11-06T01:20:49.010Z,15.22
2018-11-06T01:25:31.884Z,15.22
2018-11-06T01:30:18.299Z,15.33
2018-11-06T01:35:01.148Z,15.19
2018-11-06T01:39:45.158Z,15.18
2018-11-06T01:44:28.045Z,15.12
2018-11-06T01:49:10.964Z,15.06
2018-11-06T01:53:53.875Z,15.28
2018-11-06T01:58:38.008Z,15.13
2018-11-06T02:03:20.886Z,15.16
2018-11-06T02:08:05.491Z,15.13
2018-11-06T02:12:48.409Z,15.18
2018-11-06T02:17:31.295Z,15.27
2018-11-06T02:22:15.290Z,15.19
2018-11-06T02:26:58.223Z,15.32
2018-11-06T02:31:41.218Z,15.30
2018-11-06T02:36:24.083Z,15.28
2018-11-06T02:41:09.025Z,15.33
2018-11-06T02:45:51.907Z,15.25
2018-11-06T02:50:34.830Z,15.19
2018-11-06T02:55:17.687Z,15.29
2018-11-06T03:00:00.583Z,15.32
2018-11-06T03:04:43.446Z,15.27
2018-11-06T03:09:26.408Z,15.29
2018-11-06T03:14:09.291Z,15.33
2018-11-06T03:18:54.137Z,15.31
2018-11-06T03:23:36.990Z,15.19
2018-11-06T03:28:19.904Z,15.17
2018-11-06T03:33:02.785Z,15.04
2018-11-06T03:37:46.734Z,14.98
2018-11-06T03:42:29.605Z,15.05
2018-11-06T03:47:12.462Z,14.95
2018-11-06T03:51:56.443Z,15.12
2018-11-06T03:56:39.311Z,15.13
2018-11-06T04:01:22.433Z,15.00
2018-11-06T04:06:05.392Z,14.89
2018-11-06T04:10:48.449Z,14.92
2018-11-06T04:15:31.410Z,14.93
2018-11-06T04:20:14.475Z,14.84
2018-11-06T04:24:57.328Z,14.94
2018-11-06T04:29:41.257Z,14.93
2018-11-06T04:34:24.143Z,14.75
2018-11-06T04:39:09.240Z,14.90
2018-11-06T04:43:53.096Z,14.70
2018-11-06T04:48:36.130Z,15.00
2018-11-06T04:53:19.055Z,14.97
2018-11-06T04:58:02.817Z,14.95
2018-11-06T05:02:45.698Z,15.02
2018-11-06T05:07:28.620Z,14.94
2018-11-06T05:12:11.517Z,14.82
2018-11-06T05:16:54.397Z,14.81
2018-11-06T05:21:38.338Z,14.68
2018-11-06T05:26:21.226Z,14.63
2018-11-06T05:31:04.402Z,14.53
2018-11-06T05:35:47.340Z,14.39
2018-11-06T05:40:41.384Z,14.40
2018-11-06T05:45:24.514Z,14.35
2018-11-06T05:50:07.794Z,14.39
2018-11-06T05:54:50.731Z,14.47
2018-11-06T05:59:34.794Z,14.47
2018-11-06T06:04:17.703Z,14.50
2018-11-06T06:09:02.134Z,14.56
2018-11-06T06:13:45.402Z,14.49
2018-11-06T06:18:28.493Z,14.49
2018-11-06T06:23:11.557Z,14.51
2018-11-06T06:27:55.023Z,14.47
2018-11-06T06:32:38.338Z,14.58
2018-11-06T06:37:21.376Z,14.58
2018-11-06T06:42:04.944Z,14.54
2018-11-06T06:46:48.065Z,14.46
2018-11-06T06:51:32.098Z,14.61
2018-11-06T06:56:14.966Z,14.61
2018-11-06T07:00:59.162Z,14.50
2018-11-06T07:07:49.343Z,14.46
2018-11-06T07:12:32.734Z,14.35
2018-11-06T07:17:16.823Z,14.35
2018-11-06T07:21:59.738Z,14.35
2018-11-06T07:26:42.663Z,14.31
2018-11-06T07:31:26.758Z,14.37
2018-11-06T07:36:09.847Z,14.42
2018-11-06T07:40:53.140Z,14.38
2018-11-06T07:45:36.069Z,14.51
2018-11-06T07:50:23.005Z,14.52
2018-11-06T07:55:07.451Z,14.41
2018-11-06T07:59:50.617Z,14.46
2018-11-06T08:04:33.496Z,14.47
2018-11-06T08:09:16.413Z,14.55
2018-11-06T08:13:59.285Z,14.70
2018-11-06T08:18:43.131Z,14.66
2018-11-06T08:32:27.328Z,14.76
2018-11-06T08:37:11.018Z,15.01
2018-11-06T08:41:53.864Z,15.12
2018-11-06T08:46:37.091Z,14.99
2018-11-06T08:51:21.159Z,15.12
2018-11-06T08:56:04.378Z,15.29
2018-11-06T09:00:50.985Z,15.45
2018-11-06T09:05:33.890Z,15.61
2018-11-06T09:10:17.430Z,15.87
2018-11-06T09:15:00.287Z,15.64
2018-11-06T09:19:44.309Z,15.75
2018-11-06T09:24:27.169Z,15.67
2018-11-06T09:29:10.118Z,15.64
2018-11-06T09:33:53.079Z,15.56
2018-11-06T09:38:37.245Z,15.53
2018-11-06T09:43:20.158Z,15.54
2018-11-06T09:48:07.774Z,15.64
2018-11-06T09:54:20.038Z,15.70
2018-11-06T09:59:04.187Z,15.73
2018-11-06T10:03:47.105Z,15.79
2018-11-06T10:08:30.227Z,15.65
2018-11-06T10:13:13.135Z,15.69
2018-11-06T10:17:59.643Z,15.43
2018-11-06T10:22:42.644Z,15.39
2018-11-06T10:27:26.580Z,15.45
2018-11-06T10:32:09.464Z,15.49
2018-11-06T10:36:57.725Z,15.64
2018-11-06T10:41:40.929Z,15.46
2018-11-06T10:46:24.160Z,15.51
2018-11-06T10:51:10.734Z,15.47
2018-11-06T10:55:53.626Z,15.29
2018-11-06T11:00:43.352Z,15.18
2018-11-06T11:05:27.712Z,15.07
2018-11-06T11:10:10.762Z,15.25
2018-11-06T11:14:53.661Z,15.09
2018-11-06T11:19:40.661Z,15.10
2018-11-06T11:24:23.528Z,15.13
2018-11-06T11:29:07.439Z,15.17
2018-11-06T11:33:50.427Z,15.13
2018-11-06T11:38:34.351Z,15.04
2018-11-06T11:43:17.353Z,15.26
2018-11-06T11:48:00.435Z,14.94
2018-11-06T11:52:43.513Z,15.09
2018-11-06T11:57:29.789Z,14.99
2018-11-06T12:02:12.673Z,15.01
2018-11-06T12:06:56.843Z,15.10
2018-11-06T12:11:39.771Z,14.97
2018-11-06T12:16:27.208Z,15.05
2018-11-06T12:21:10.090Z,15.09
2018-11-06T12:25:53.110Z,14.89
2018-11-06T12:30:36.913Z,14.97
2018-11-06T12:35:19.814Z,15.08
2018-11-06T12:40:06.370Z,15.20
2018-11-06T12:44:49.257Z,14.90
2018-11-06T12:49:32.228Z,15.09
2018-11-06T12:54:15.133Z,14.92
2018-11-06T12:58:59.337Z,15.21
2018-11-06T13:05:11.610Z,15.21
2018-11-06T13:09:54.694Z,15.29
2018-11-06T13:14:37.698Z,15.35
2018-11-06T13:19:21.659Z,15.46
2018-11-06T13:24:05.006Z,15.36
2018-11-06T13:28:49.372Z,15.56
2018-11-06T13:33:32.242Z,15.80
2018-11-06T13:38:16.294Z,15.35
2018-11-06T13:42:59.313Z,15.67
2018-11-06T13:47:44.367Z,15.39
2018-11-06T13:52:27.274Z,15.56
2018-11-06T13:57:11.141Z,15.40
2018-11-06T14:01:54.098Z,15.33
2018-11-06T14:06:37.129Z,15.41
2018-11-06T14:11:19.987Z,15.43
2018-11-06T14:16:02.896Z,15.17
2018-11-06T14:20:49.364Z,15.38
2018-11-06T14:25:32.247Z,15.38
2018-11-06T14:30:18.151Z,15.40
2018-11-06T14:35:01.104Z,15.27
2018-11-06T14:39:45.080Z,15.53
2018-11-06T14:44:27.952Z,15.27
2018-11-06T14:49:12.965Z,15.42
2018-11-06T14:53:55.852Z,15.25
2018-11-06T14:58:42.775Z,15.36
2018-11-06T15:03:25.655Z,15.23
2018-11-06T15:08:09.743Z,15.16
2018-11-06T15:12:52.619Z,15.24
2018-11-06T15:17:37.579Z,15.08
2018-11-06T15:22:20.463Z,15.06
2018-11-06T15:27:04.399Z,15.22
2018-11-06T15:31:47.345Z,15.31
2018-11-06T15:36:34.009Z,15.24
2018-11-06T15:41:16.995Z,15.08
2018-11-06T15:46:01.017Z,15.18
2018-11-06T15:50:43.991Z,15.30
2018-11-06T15:55:26.935Z,15.33
2018-11-06T16:00:15.089Z,15.28
2018-11-06T16:04:58.024Z,15.17
2018-11-06T16:09:41.120Z,15.16
2018-11-06T16:14:24.069Z,15.27
2018-11-06T16:19:07.971Z,15.29
2018-11-06T16:23:50.906Z,15.15
2018-11-06T16:28:34.918Z,15.10
2018-11-06T16:33:17.837Z,15.10
2018-11-06T16:38:01.953Z,15.04
2018-11-06T16:42:45.862Z,14.90
2018-11-06T16:47:29.892Z,15.09
2018-11-06T16:52:12.888Z,14.94
2018-11-06T16:56:56.856Z,14.93
2018-11-06T17:01:39.809Z,14.83
2018-11-06T17:06:29.191Z,14.70
2018-11-06T17:11:12.150Z,14.62
2018-11-06T17:15:55.269Z,14.88
2018-11-06T17:20:38.189Z,14.96
2018-11-06T17:25:21.999Z,14.84
2018-11-06T17:30:06.603Z,14.71
2018-11-06T17:34:49.811Z,14.45
2018-11-06T17:39:32.874Z,14.78
2018-11-06T17:44:15.892Z,14.57
2018-11-06T17:48:59.027Z,14.49
2018-11-06T17:53:41.971Z,14.52
2018-11-06T17:58:26.068Z,14.59
2018-11-06T18:03:09.024Z,14.51
2018-11-06T18:07:52.430Z,14.48
2018-11-06T18:12:35.643Z,14.64
2018-11-06T18:17:18.585Z,14.58
2018-11-06T18:22:01.803Z,14.63
2018-11-06T18:26:44.966Z,14.68
2018-11-06T18:31:28.006Z,14.54
2018-11-06T18:36:11.523Z,14.25
2018-11-06T18:40:54.483Z,14.29
2018-11-06T18:45:38.357Z,14.54
2018-11-06T18:50:21.537Z,14.28
2018-11-06T18:55:04.927Z,14.12
2018-11-06T18:59:47.960Z,13.90
2018-11-06T19:04:31.009Z,13.70
2018-11-06T19:09:13.938Z,13.73
2018-11-06T19:13:56.848Z,13.40
2018-11-06T19:18:40.138Z,13.37
2018-11-06T19:23:24.606Z,13.66
2018-11-06T19:28:08.450Z,13.50
2018-11-06T19:32:51.405Z,13.54
2018-11-06T19:37:34.571Z,13.35
2018-11-06T19:42:17.575Z,13.43
2018-11-06T19:47:02.655Z,13.39
2018-11-06T19:51:45.585Z,13.32
2018-11-06T19:56:28.728Z,13.37
2018-11-06T20:01:11.673Z,13.30
2018-11-06T20:05:57.712Z,13.42
2018-11-06T20:10:40.960Z,13.34
2018-11-06T20:15:24.100Z,13.36
2018-11-06T20:20:09.896Z,13.39
2018-11-06T20:24:54.332Z,13.36
2018-11-06T20:35:17.446Z,13.24
2018-11-06T20:40:07.599Z,13.11
2018-11-06T20:44:57.848Z,13.12
2018-11-06T20:49:46.792Z,13.23
2018-11-06T20:54:33.025Z,13.08
2018-11-06T21:09:37.635Z,13.09
2018-11-06T21:14:45.483Z,13.12
2018-11-06T21:19:30.000Z,12.92
2018-11-06T21:24:13.924Z,13.16
2018-11-06T21:28:57.288Z,13.07
2018-11-06T21:33:40.209Z,13.09
2018-11-06T21:38:24.624Z,12.87
2018-11-06T21:43:07.581Z,13.08
2018-11-06T21:48:00.711Z,13.01
2018-11-06T21:52:54.850Z,12.83
2018-11-06T21:57:41.340Z,13.23
2018-11-06T22:02:29.471Z,13.09
2018-11-06T22:07:14.473Z,13.04
2018-11-06T22:11:57.768Z,12.98
2018-11-06T22:16:41.105Z,13.10
2018-11-06T22:21:26.057Z,13.08
2018-11-06T22:26:16.035Z,13.03
2018-11-06T22:31:15.918Z,13.12
2018-11-06T22:36:15.488Z,13.10
2018-11-06T22:41:11.320Z,13.05
2018-11-06T22:46:16.614Z,13.18
2018-11-06T22:55:58.908Z,13.11
2018-11-06T23:00:47.634Z,12.91
2018-11-06T23:05:34.089Z,13.03
2018-11-06T23:10:27.194Z,12.89
2018-11-06T23:15:12.794Z,12.92
2018-11-06T23:20:04.679Z,13.10
2018-11-06T23:25:12.678Z,13.05
2018-11-06T23:30:13.178Z,13.25
